createdAt,value
2023-02-19T00:02:15.672Z,53.93
2023-02-19T00:04:42.544Z,53.65
2023-02-19T00:07:09.411Z,53.97
2023-02-19T00:09:36.276Z,54.04
2023-02-19T00:12:03.155Z,54.00
2023-02-19T00:14:30.041Z,54.42
2023-02-19T00:16:56.846Z,54.08
2023-02-19T00:19:24.288Z,54.63
2023-02-19T00:21:52.846Z,54.09
2023-02-19T00:24:20.506Z,54.62
2023-02-19T00:26:48.213Z,54.93
2023-02-19T00:29:19.873Z,54.31
2023-02-19T00:31:47.383Z,54.23
2023-02-19T00:34:14.953Z,55.11
2023-02-19T00:36:42.999Z,55.78
2023-02-19T00:39:15.571Z,55.14
2023-02-19T00:41:43.198Z,55.92
2023-02-19T00:44:12.104Z,55.43
2023-02-19T00:46:45.999Z,55.24
2023-02-19T00:49:22.949Z,55.45
2023-02-19T00:51:52.347Z,54.89
2023-02-19T00:54:22.356Z,56.29
2023-02-19T00:56:49.637Z,54.80
2023-02-19T00:59:16.738Z,55.96
2023-02-19T01:01:44.991Z,55.68
2023-02-19T01:04:12.080Z,55.69
2023-02-19T01:06:38.875Z,56.09
2023-02-19T01:09:07.775Z,56.09
2023-02-19T01:11:35.309Z,56.75
2023-02-19T01:14:03.437Z,56.67
2023-02-19T01:16:31.014Z,56.29
2023-02-19T01:19:00.045Z,55.82
2023-02-19T01:21:29.627Z,55.54
2023-02-19T01:23:58.861Z,54.97
2023-02-19T01:26:30.125Z,55.43
2023-02-19T01:28:58.489Z,56.41
2023-02-19T01:31:26.228Z,56.03
2023-02-19T01:34:00.496Z,56.45
2023-02-19T01:36:29.338Z,55.92
2023-02-19T01:38:56.279Z,56.05
2023-02-19T01:41:25.740Z,55.45
2023-02-19T01:44:27.567Z,56.23
2023-02-19T01:46:57.530Z,56.07
2023-02-19T01:49:53.074Z,55.37
2023-02-19T01:52:32.687Z,56.05
2023-02-19T01:55:01.816Z,56.18
2023-02-19T01:57:34.862Z,56.97
2023-02-19T02:00:12.930Z,56.32
2023-02-19T02:02:42.572Z,56.66
2023-02-19T02:05:20.168Z,56.52
2023-02-19T02:08:05.452Z,55.76
2023-02-19T02:10:32.251Z,57.05
2023-02-19T02:12:59.370Z,56.82
2023-02-19T02:15:55.947Z,58.17
2023-02-19T02:18:54.481Z,57.00
2023-02-19T02:21:49.260Z,57.48
2023-02-19T02:24:53.021Z,56.85
2023-02-19T02:27:43.263Z,56.51
2023-02-19T02:30:31.596Z,57.02
2023-02-19T02:33:22.049Z,57.02
2023-02-19T02:35:56.655Z,57.03
2023-02-19T02:38:29.340Z,56.96
2023-02-19T02:40:56.947Z,55.98
2023-02-19T02:43:24.194Z,56.67
2023-02-19T02:45:51.138Z,56.01
2023-02-19T02:48:32.558Z,56.53
2023-02-19T02:51:23.450Z,56.38
2023-02-19T02:54:12.340Z,56.38
2023-02-19T02:56:41.330Z,57.20
2023-02-19T02:59:11.409Z,56.85
2023-02-19T03:02:02.361Z,56.95
2023-02-19T03:04:37.756Z,58.20
2023-02-19T03:07:08.856Z,56.51
2023-02-19T03:09:43.155Z,57.07
2023-02-19T03:12:34.314Z,56.71
2023-02-19T03:15:25.997Z,56.67
2023-02-19T03:18:17.748Z,55.92
2023-02-19T03:20:50.329Z,56.36
2023-02-19T03:23:19.445Z,56.32
2023-02-19T03:26:05.655Z,57.87
2023-02-19T03:28:56.889Z,58.00
2023-02-19T03:31:27.058Z,57.71
2023-02-19T03:34:00.610Z,57.74
2023-02-19T03:36:36.982Z,59.12
2023-02-19T03:39:07.723Z,58.44
2023-02-19T03:41:48.696Z,59.36
2023-02-19T03:44:40.384Z,59.42
2023-02-19T03:47:39.968Z,59.89
2023-02-19T03:50:30.184Z,60.31
2023-02-19T03:53:28.458Z,61.03
2023-02-19T03:56:18.339Z,60.53
2023-02-19T03:59:05.823Z,60.59
2023-02-19T04:01:42.671Z,61.98
2023-02-19T04:04:34.134Z,61.02
2023-02-19T04:07:01.146Z,59.86
2023-02-19T04:09:37.043Z,61.01
2023-02-19T04:12:05.334Z,61.27
2023-02-19T04:14:45.574Z,60.44
2023-02-19T04:17:29.940Z,61.65
2023-02-19T04:19:58.908Z,61.63
2023-02-19T04:22:26.572Z,61.92
2023-02-19T04:24:55.555Z,61.95
2023-02-19T04:27:22.434Z,61.68
2023-02-19T04:29:49.315Z,61.02
2023-02-19T04:32:16.138Z,61.33
2023-02-19T04:34:42.929Z,61.96
2023-02-19T04:37:09.916Z,62.41
2023-02-19T04:39:36.775Z,63.44
2023-02-19T04:42:04.118Z,63.45
2023-02-19T04:44:30.915Z,62.88
2023-02-19T04:46:57.733Z,63.57
2023-02-19T04:49:24.563Z,64.07
2023-02-19T04:51:51.325Z,63.09
2023-02-19T04:54:18.130Z,63.07
2023-02-19T04:56:44.924Z,63.87
2023-02-19T04:59:12.549Z,64.07
2023-02-19T05:01:39.387Z,62.40
2023-02-19T05:04:06.197Z,62.17
2023-02-19T05:06:33.130Z,63.43
2023-02-19T05:08:59.912Z,62.99
2023-02-19T05:11:27.047Z,62.45
2023-02-19T05:13:56.017Z,63.32
2023-02-19T05:16:22.951Z,63.07
2023-02-19T05:18:49.740Z,63.41
2023-02-19T05:21:16.992Z,63.18
2023-02-19T05:23:44.152Z,63.29
2023-02-19T05:26:22.483Z,63.10
2023-02-19T05:28:53.866Z,64.78
2023-02-19T05:31:21.515Z,63.38
2023-02-19T05:33:51.217Z,64.28
2023-02-19T05:36:21.344Z,62.94
2023-02-19T05:38:52.641Z,64.14
2023-02-19T05:41:23.421Z,63.89
2023-02-19T05:43:50.554Z,65.58
2023-02-19T05:46:21.371Z,64.52
2023-02-19T05:48:49.559Z,64.02
2023-02-19T05:51:20.236Z,63.79
2023-02-19T05:53:47.233Z,63.71
2023-02-19T05:56:30.998Z,63.02
2023-02-19T05:58:58.397Z,63.91
2023-02-19T06:01:28.398Z,64.89
2023-02-19T06:03:57.490Z,64.24
2023-02-19T06:06:25.828Z,64.49
2023-02-19T06:08:53.213Z,63.71
2023-02-19T06:11:20.478Z,64.43
2023-02-19T06:13:47.542Z,64.51
2023-02-19T06:16:14.410Z,64.44
2023-02-19T06:18:41.300Z,64.48
2023-02-19T06:21:11.154Z,65.06
2023-02-19T06:23:39.162Z,65.06
2023-02-19T06:26:12.316Z,64.81
2023-02-19T06:28:40.472Z,64.41
2023-02-19T06:31:09.344Z,64.88
2023-02-19T06:33:40.432Z,63.33
2023-02-19T06:36:11.949Z,64.62
2023-02-19T06:38:38.891Z,64.07
2023-02-19T06:41:07.269Z,63.93
2023-02-19T06:43:34.789Z,65.20
2023-02-19T06:46:04.530Z,64.65
2023-02-19T06:48:32.548Z,64.20
2023-02-19T06:50:59.880Z,64.21
2023-02-19T06:53:27.511Z,63.79
2023-02-19T06:56:04.719Z,64.97
2023-02-19T06:58:32.634Z,65.19
2023-02-19T07:00:59.899Z,64.84
2023-02-19T07:03:26.842Z,65.78
2023-02-19T07:05:53.966Z,66.92
2023-02-19T07:08:20.876Z,66.38
2023-02-19T07:10:56.445Z,65.99
2023-02-19T07:13:25.278Z,64.65
2023-02-19T07:15:52.684Z,65.41
2023-02-19T07:18:19.532Z,66.57
2023-02-19T07:20:46.460Z,66.61
2023-02-19T07:23:13.235Z,66.59
2023-02-19T07:25:40.175Z,66.28
2023-02-19T07:28:07.951Z,66.31
2023-02-19T07:30:34.815Z,66.09
2023-02-19T07:33:01.800Z,67.60
2023-02-19T07:35:28.871Z,66.41
2023-02-19T07:37:55.668Z,65.98
2023-02-19T07:40:22.430Z,67.64
2023-02-19T07:42:49.273Z,66.10
2023-02-19T07:45:16.169Z,66.22
2023-02-19T07:47:43.535Z,66.97
2023-02-19T07:50:12.376Z,65.81
2023-02-19T07:52:40.533Z,66.60
2023-02-19T07:55:07.528Z,66.36
2023-02-19T07:57:34.308Z,66.53
2023-02-19T08:00:01.275Z,66.61
2023-02-19T08:02:46.435Z,66.40
2023-02-19T08:05:14.020Z,67.29
2023-02-19T08:07:41.005Z,67.73
2023-02-19T08:10:26.665Z,67.59
2023-02-19T08:13:17.109Z,68.26
2023-02-19T08:15:47.850Z,68.48
2023-02-19T08:18:16.361Z,67.42
2023-02-19T08:20:43.877Z,67.71
2023-02-19T08:23:12.165Z,67.04
2023-02-19T08:25:40.167Z,66.89
2023-02-19T08:28:09.643Z,66.62
2023-02-19T08:30:38.348Z,68.17
2023-02-19T08:33:07.703Z,68.29
2023-02-19T08:35:36.480Z,67.59
2023-02-19T08:38:05.220Z,66.62
2023-02-19T08:40:33.319Z,66.74
2023-02-19T08:43:13.029Z,65.76
2023-02-19T08:45:43.227Z,66.76
2023-02-19T08:48:11.859Z,67.48
2023-02-19T08:50:39.193Z,66.06
2023-02-19T08:53:07.089Z,66.08
2023-02-19T08:55:34.515Z,63.78
2023-02-19T08:58:01.562Z,64.90
2023-02-19T09:00:28.602Z,64.01
2023-02-19T09:02:57.927Z,64.40
2023-02-19T09:05:24.700Z,64.21
2023-02-19T09:07:51.466Z,64.43
2023-02-19T09:10:18.415Z,63.86
2023-02-19T09:12:45.213Z,64.07
2023-02-19T09:15:11.975Z,62.94
2023-02-19T09:17:38.737Z,62.67
2023-02-19T09:20:05.865Z,61.92
2023-02-19T09:22:32.978Z,60.93
2023-02-19T09:24:59.786Z,61.95
2023-02-19T09:27:26.611Z,60.61
2023-02-19T09:29:54.641Z,61.23
2023-02-19T09:32:21.558Z,60.36
2023-02-19T09:34:49.584Z,60.21
2023-02-19T09:37:16.346Z,59.50
2023-02-19T09:39:43.175Z,60.13
2023-02-19T09:42:16.156Z,59.39
2023-02-19T09:44:48.309Z,60.41
2023-02-19T09:47:22.973Z,59.96
2023-02-19T09:49:54.218Z,59.03
2023-02-19T09:52:59.537Z,57.88
2023-02-19T09:55:34.553Z,57.70
2023-02-19T09:58:14.937Z,55.60
2023-02-19T10:00:41.704Z,56.01
2023-02-19T10:03:17.433Z,55.58
2023-02-19T10:05:44.268Z,56.20
2023-02-19T10:08:18.938Z,55.21
2023-02-19T10:10:45.805Z,56.18
2023-02-19T10:13:30.649Z,55.28
2023-02-19T10:16:01.861Z,54.96
2023-02-19T10:18:42.249Z,54.79
2023-02-19T10:21:17.715Z,54.08
2023-02-19T10:23:45.089Z,50.66
2023-02-19T10:26:11.989Z,50.72
2023-02-19T10:28:38.785Z,52.46
2023-02-19T10:31:20.926Z,53.43
2023-02-19T10:33:54.945Z,52.49
2023-02-19T10:36:41.259Z,51.70
2023-02-19T10:39:23.078Z,50.92
2023-02-19T10:41:51.461Z,49.71
2023-02-19T10:44:27.385Z,51.50
2023-02-19T10:46:57.701Z,50.35
2023-02-19T10:49:41.961Z,51.07
2023-02-19T10:52:27.358Z,53.06
2023-02-19T10:55:14.609Z,51.21
2023-02-19T10:57:41.758Z,51.38
2023-02-19T11:00:26.761Z,50.83
2023-02-19T11:03:21.354Z,50.29
2023-02-19T11:06:02.543Z,50.34
2023-02-19T11:08:30.822Z,50.41
2023-02-19T11:10:58.444Z,49.53
2023-02-19T11:13:32.444Z,48.78
2023-02-19T11:16:00.393Z,45.16
2023-02-19T11:18:31.416Z,46.19
2023-02-19T11:21:01.779Z,45.90
2023-02-19T11:23:45.290Z,44.46
2023-02-19T11:26:23.222Z,43.71
2023-02-19T11:29:19.676Z,44.02
2023-02-19T11:31:46.669Z,43.66
2023-02-19T11:34:21.307Z,44.71
2023-02-19T11:37:15.002Z,46.81
2023-02-19T11:39:45.557Z,50.21
2023-02-19T11:42:49.235Z,52.42
2023-02-19T11:46:07.079Z,53.10
2023-02-19T11:49:15.086Z,52.84
2023-02-19T11:52:01.529Z,52.89
2023-02-19T11:54:51.974Z,53.28
2023-02-19T11:57:39.274Z,51.49
2023-02-19T12:00:30.913Z,51.34
2023-02-19T12:03:44.140Z,49.99
2023-02-19T12:06:32.522Z,49.28
2023-02-19T12:09:33.074Z,48.29
2023-02-19T12:12:37.979Z,49.35
2023-02-19T12:15:29.523Z,49.11
2023-02-19T12:18:23.800Z,50.61
2023-02-19T12:21:40.959Z,50.63
2023-02-19T12:24:44.767Z,49.91
2023-02-19T12:27:37.222Z,46.26
2023-02-19T12:30:29.539Z,46.66
2023-02-19T12:33:27.296Z,48.27
2023-02-19T12:36:00.756Z,47.31
2023-02-19T12:38:45.558Z,47.78
2023-02-19T12:41:42.301Z,46.78
2023-02-19T12:44:44.716Z,45.79
2023-02-19T12:47:24.247Z,45.57
2023-02-19T12:50:21.192Z,45.98
2023-02-19T12:52:54.243Z,44.87
2023-02-19T12:55:33.770Z,44.04
2023-02-19T12:58:05.866Z,44.66
2023-02-19T13:00:50.369Z,45.60
2023-02-19T13:03:27.068Z,45.99
2023-02-19T13:06:21.293Z,46.58
2023-02-19T13:09:08.014Z,46.43
2023-02-19T13:11:44.487Z,47.04
2023-02-19T13:14:26.255Z,46.81
2023-02-19T13:17:01.730Z,48.20
2023-02-19T13:19:30.968Z,48.44
2023-02-19T13:22:40.930Z,49.47
2023-02-19T13:25:10.210Z,50.33
2023-02-19T13:27:52.109Z,51.09
2023-02-19T13:30:57.519Z,51.30
2023-02-19T13:34:25.281Z,50.97
2023-02-19T13:36:53.409Z,50.69
2023-02-19T13:39:21.898Z,50.41
2023-02-19T13:41:58.950Z,49.64
2023-02-19T13:44:32.522Z,50.42
2023-02-19T13:46:59.506Z,48.86
2023-02-19T13:49:41.580Z,49.31
2023-02-19T13:52:29.486Z,48.49
2023-02-19T13:55:46.560Z,47.96
2023-02-19T13:58:42.489Z,48.01
2023-02-19T14:01:11.570Z,46.61
2023-02-19T14:03:56.548Z,45.96
2023-02-19T14:06:23.365Z,45.87
2023-02-19T14:09:00.403Z,44.61
2023-02-19T14:11:42.346Z,44.53
2023-02-19T14:14:24.902Z,44.57
2023-02-19T14:17:01.141Z,45.43
2023-02-19T14:19:48.751Z,44.07
2023-02-19T14:22:53.170Z,44.32
2023-02-19T14:25:34.891Z,44.78
2023-02-19T14:28:09.958Z,45.19
2023-02-19T14:30:58.881Z,44.37
2023-02-19T14:33:40.233Z,45.03
2023-02-19T14:36:50.327Z,44.52
2023-02-19T14:39:19.284Z,45.33
2023-02-19T14:41:57.638Z,46.05
2023-02-19T14:44:30.448Z,46.12
2023-02-19T14:47:07.030Z,46.58
2023-02-19T14:49:46.814Z,46.78
2023-02-19T14:52:17.809Z,48.84
2023-02-19T14:54:59.878Z,52.60
2023-02-19T14:57:45.362Z,56.88
2023-02-19T15:00:37.529Z,56.68
2023-02-19T15:03:05.682Z,56.83
2023-02-19T15:05:38.634Z,56.34
2023-02-19T15:08:16.432Z,55.61
2023-02-19T15:10:44.399Z,55.00
2023-02-19T15:13:17.372Z,54.21
2023-02-19T15:15:46.189Z,54.05
2023-02-19T15:18:24.208Z,54.24
2023-02-19T15:20:59.130Z,52.92
2023-02-19T15:23:30.337Z,50.56
2023-02-19T15:25:57.718Z,47.58
2023-02-19T15:28:24.904Z,42.51
2023-02-19T15:31:15.886Z,39.95
2023-02-19T15:33:50.918Z,40.00
2023-02-19T15:36:32.199Z,41.77
2023-02-19T15:39:02.652Z,44.52
2023-02-19T15:41:34.529Z,44.47
2023-02-19T15:44:30.368Z,47.17
2023-02-19T15:47:02.201Z,47.39
2023-02-19T15:49:42.343Z,48.12
2023-02-19T15:52:26.733Z,48.77
2023-02-19T15:55:48.100Z,49.67
2023-02-19T15:58:38.230Z,49.56
2023-02-19T16:01:13.105Z,50.03
2023-02-19T16:03:40.658Z,51.24
2023-02-19T16:06:16.537Z,51.37
2023-02-19T16:08:47.054Z,51.11
2023-02-19T16:11:22.782Z,51.55
2023-02-19T16:13:51.130Z,51.80
2023-02-19T16:16:35.037Z,52.19
2023-02-19T16:19:02.270Z,52.27
2023-02-19T16:21:29.349Z,51.93
2023-02-19T16:24:14.700Z,52.11
2023-02-19T16:26:43.568Z,52.32
2023-02-19T16:29:22.080Z,52.02
2023-02-19T16:32:16.498Z,51.90
2023-02-19T16:34:48.067Z,52.54
2023-02-19T16:37:35.062Z,52.32
2023-02-19T16:40:07.752Z,52.48
2023-02-19T16:42:55.116Z,52.65
2023-02-19T16:45:21.926Z,52.50
2023-02-19T16:47:50.976Z,52.46
2023-02-19T16:50:24.453Z,52.36
2023-02-19T16:53:03.085Z,52.49
2023-02-19T16:55:32.588Z,51.87
2023-02-19T16:57:59.461Z,51.95
2023-02-19T17:00:29.877Z,52.03
2023-02-19T17:03:09.057Z,52.38
2023-02-19T17:05:37.487Z,52.57
2023-02-19T17:08:38.539Z,52.93
2023-02-19T17:11:12.011Z,53.30
2023-02-19T17:13:39.425Z,53.75
2023-02-19T17:16:06.817Z,53.02
2023-02-19T17:18:33.751Z,52.35
2023-02-19T17:21:17.856Z,53.29
2023-02-19T17:23:45.066Z,52.83
2023-02-19T17:26:21.590Z,53.01
2023-02-19T17:28:48.989Z,52.85
2023-02-19T17:31:16.743Z,52.99
2023-02-19T17:33:44.716Z,52.98
2023-02-19T17:36:27.814Z,52.99
2023-02-19T17:38:54.845Z,52.38
2023-02-19T17:41:21.735Z,52.95
2023-02-19T17:43:50.443Z,53.04
2023-02-19T17:46:20.471Z,52.78
2023-02-19T17:48:47.349Z,53.13
2023-02-19T17:51:14.747Z,53.24
2023-02-19T17:53:42.327Z,53.92
2023-02-19T17:56:09.366Z,53.48
2023-02-19T17:58:36.165Z,53.71
2023-02-19T18:01:03.007Z,53.37
2023-02-19T18:03:30.055Z,53.50
2023-02-19T18:05:56.956Z,53.66
2023-02-19T18:08:23.720Z,53.58
2023-02-19T18:10:50.595Z,53.90
2023-02-19T18:13:17.362Z,53.62
2023-02-19T18:15:44.878Z,53.63
2023-02-19T18:18:12.267Z,53.05
2023-02-19T18:20:39.104Z,54.03
2023-02-19T18:23:06.056Z,53.45
2023-02-19T18:25:32.842Z,53.33
2023-02-19T18:27:59.747Z,53.31
2023-02-19T18:30:28.513Z,53.28
2023-02-19T18:32:55.543Z,53.45
2023-02-19T18:35:22.360Z,53.47
2023-02-19T18:37:53.442Z,53.64
2023-02-19T18:40:22.274Z,53.20
2023-02-19T18:42:49.221Z,53.08
2023-02-19T18:45:16.185Z,53.16
2023-02-19T18:47:46.428Z,53.38
2023-02-19T18:50:13.412Z,53.61
2023-02-19T18:52:40.233Z,53.73
2023-02-19T18:55:07.987Z,53.57
2023-02-19T18:57:34.761Z,53.82
2023-02-19T19:00:01.528Z,53.43
2023-02-19T19:02:33.743Z,53.69
2023-02-19T19:05:06.815Z,54.34
2023-02-19T19:07:33.621Z,54.15
2023-02-19T19:10:00.381Z,53.91
2023-02-19T19:12:27.238Z,53.83
2023-02-19T19:14:54.645Z,54.03
2023-02-19T19:17:21.472Z,53.94
2023-02-19T19:19:48.262Z,53.71
2023-02-19T19:22:16.509Z,54.69
2023-02-19T19:24:43.338Z,54.02
2023-02-19T19:27:10.308Z,53.57
2023-02-19T19:29:37.256Z,54.26
2023-02-19T19:32:08.212Z,54.47
2023-02-19T19:34:35.397Z,55.00
2023-02-19T19:37:02.206Z,55.07
2023-02-19T19:39:28.953Z,55.17
2023-02-19T19:41:56.898Z,54.90
2023-02-19T19:44:24.093Z,55.14
2023-02-19T19:46:50.952Z,55.23
2023-02-19T19:49:21.845Z,55.41
2023-02-19T19:51:49.013Z,55.46
2023-02-19T19:54:15.862Z,55.83
2023-02-19T19:56:45.435Z,55.98
2023-02-19T19:59:16.741Z,55.56
2023-02-19T20:01:51.890Z,55.33
2023-02-19T20:04:21.895Z,55.73
2023-02-19T20:06:48.998Z,56.29
2023-02-19T20:09:17.405Z,55.82
2023-02-19T20:11:50.350Z,56.07
2023-02-19T20:14:19.758Z,55.76
2023-02-19T20:16:47.529Z,56.13
2023-02-19T20:19:18.540Z,56.02
2023-02-19T20:21:50.980Z,55.78
2023-02-19T20:24:24.073Z,55.83
2023-02-19T20:26:53.603Z,56.15
2023-02-19T20:29:20.830Z,56.57
2023-02-19T20:31:49.925Z,56.42
2023-02-19T20:34:17.499Z,56.07
2023-02-19T20:36:46.734Z,56.38
2023-02-19T20:39:15.681Z,55.52
2023-02-19T20:41:50.909Z,56.38
2023-02-19T20:44:18.527Z,56.20
2023-02-19T20:46:48.601Z,56.16
2023-02-19T20:49:18.163Z,56.21
2023-02-19T20:51:51.776Z,56.19
2023-02-19T20:54:21.016Z,56.37
2023-02-19T20:56:50.569Z,56.46
2023-02-19T20:59:18.672Z,56.32
2023-02-19T21:01:45.660Z,56.45
2023-02-19T21:04:13.331Z,56.83
2023-02-19T21:06:40.330Z,56.84
2023-02-19T21:09:07.979Z,56.47
2023-02-19T21:11:34.835Z,56.14
2023-02-19T21:14:01.678Z,56.39
2023-02-19T21:16:31.945Z,56.01
2023-02-19T21:18:59.603Z,55.98
2023-02-19T21:21:26.961Z,56.30
2023-02-19T21:23:57.180Z,57.02
2023-02-19T21:26:25.220Z,56.22
2023-02-19T21:28:52.910Z,56.45
2023-02-19T21:31:25.209Z,56.34
2023-02-19T21:33:52.256Z,56.36
2023-02-19T21:36:19.042Z,56.91
2023-02-19T21:38:46.510Z,56.58
2023-02-19T21:41:13.283Z,56.19
2023-02-19T21:43:40.086Z,56.75
2023-02-19T21:46:06.935Z,56.63
2023-02-19T21:48:33.800Z,57.42
2023-02-19T21:51:00.758Z,57.42
2023-02-19T21:53:27.546Z,57.39
2023-02-19T21:56:10.650Z,57.10
2023-02-19T21:58:37.500Z,58.05
2023-02-19T22:01:04.461Z,57.87
2023-02-19T22:03:31.343Z,57.24
2023-02-19T22:06:02.171Z,57.58
2023-02-19T22:08:28.959Z,58.54
2023-02-19T22:10:55.786Z,58.24
2023-02-19T22:13:22.632Z,58.28
2023-02-19T22:15:49.484Z,57.83
2023-02-19T22:18:16.262Z,58.07
2023-02-19T22:20:43.064Z,57.99
2023-02-19T22:23:09.812Z,57.33
2023-02-19T22:25:36.653Z,57.85
2023-02-19T22:28:04.977Z,58.31
2023-02-19T22:30:31.825Z,58.02
2023-02-19T22:32:58.638Z,57.94
2023-02-19T22:35:25.578Z,58.24
2023-02-19T22:37:52.860Z,58.03
2023-02-19T22:40:19.634Z,57.41
2023-02-19T22:42:46.410Z,58.21
2023-02-19T22:45:14.398Z,57.55
2023-02-19T22:47:41.986Z,57.84
2023-02-19T22:50:15.986Z,59.07
2023-02-19T22:52:42.733Z,57.61
2023-02-19T22:55:09.553Z,57.71
2023-02-19T22:57:36.346Z,58.63
2023-02-19T23:00:08.489Z,58.11
2023-02-19T23:02:35.249Z,58.04
2023-02-19T23:05:02.103Z,58.06
2023-02-19T23:07:28.876Z,58.82
2023-02-19T23:09:55.697Z,57.80
2023-02-19T23:12:23.185Z,58.86
2023-02-19T23:14:50.016Z,58.61
2023-02-19T23:17:16.819Z,58.08
2023-02-19T23:19:43.665Z,58.37
2023-02-19T23:22:10.528Z,58.36
2023-02-19T23:24:37.334Z,59.01
2023-02-19T23:27:04.116Z,58.91
2023-02-19T23:29:31.004Z,59.06
2023-02-19T23:32:00.243Z,58.49
2023-02-19T23:34:27.102Z,58.51
2023-02-19T23:36:55.356Z,58.71
2023-02-19T23:39:22.780Z,58.64
2023-02-19T23:41:55.382Z,58.48
2023-02-19T23:44:24.513Z,58.54
2023-02-19T23:46:52.295Z,58.47
2023-02-19T23:49:19.455Z,58.67
2023-02-19T23:51:46.434Z,58.36
2023-02-19T23:54:13.473Z,58.51
2023-02-19T23:56:40.349Z,58.28
2023-02-19T23:59:07.155Z,57.96
